Time;durP1;ratioP1;P1;durP2;ratioP2;P2;SDS_P1;SDS_P2;PMS_P1;PMS_P2;Temp;Humidity;BMP_temperature;BMP_pressure;BME280_temperature;BME280_humidity;BME280_pressure;Samples;Min_cycle;Max_cycle;Signal;HPM_P1;HPM_P2
2020/12/10 00:00:49;;;;;;;21.17;15.40;;;;;;;9.90;69.56;93040.31;5021579;28;20036;-80
2020/12/10 00:03:14;;;;;;;16.52;13.00;;;;;;;9.80;69.73;93051.13;5019553;28;20116;-80
2020/12/10 00:05:40;;;;;;;17.67;11.98;;;;;;;9.75;70.05;93054.66;5021519;28;20053;-80
2020/12/10 00:08:05;;;;;;;15.30;10.80;;;;;;;9.67;70.30;93047.47;5021352;28;20528;-80
2020/12/10 00:10:32;;;;;;;11.38;9.25;;;;;;;9.73;70.60;93048.13;5024026;28;20067;-80
2020/12/10 00:12:58;;;;;;;11.27;9.18;;;;;;;9.69;70.79;93055.06;5005286;28;20049;-80
2020/12/10 00:15:24;;;;;;;12.90;9.30;;;;;;;9.65;70.63;93036.44;5020974;28;20525;-80
2020/12/10 00:17:49;;;;;;;15.27;10.38;;;;;;;9.61;70.81;93022.31;5021207;28;20037;-80
2020/12/10 00:20:15;;;;;;;13.13;9.05;;;;;;;9.67;70.94;93022.97;5021285;28;20041;-80
2020/12/10 00:22:40;;;;;;;10.25;8.60;;;;;;;9.67;70.76;93015.81;5018365;28;20028;-80
2020/12/10 00:25:06;;;;;;;10.23;7.68;;;;;;;9.61;70.60;92995.91;5023041;28;20033;-80
2020/12/10 00:27:34;;;;;;;11.93;9.05;;;;;;;9.72;70.82;93010.44;5020341;28;20037;-80
2020/12/10 00:29:59;;;;;;;7.90;7.07;;;;;;;9.72;70.91;93042.09;5021522;28;20096;-80
2020/12/10 00:32:25;;;;;;;11.40;8.20;;;;;;;9.66;71.27;93034.59;5002851;28;20045;-80
2020/12/10 00:34:51;;;;;;;19.90;12.02;;;;;;;9.79;71.20;93023.19;5002741;28;20164;-80
2020/12/10 00:37:17;;;;;;;27.23;16.70;;;;;;;9.74;70.90;93005.63;5024113;28;20089;-80
2020/12/10 00:39:43;;;;;;;32.88;17.83;;;;;;;9.81;70.73;93021.81;5019949;28;20569;-80
2020/12/10 00:42:08;;;;;;;16.58;13.00;;;;;;;9.82;70.78;93023.34;5019541;28;20414;-80
2020/12/10 00:44:34;;;;;;;14.88;9.75;;;;;;;9.87;70.33;93031.13;5020607;28;20045;-80
2020/12/10 00:47:00;;;;;;;20.05;12.45;;;;;;;9.88;70.34;93029.28;5017498;28;20045;-80
2020/12/10 00:49:26;;;;;;;17.73;12.15;;;;;;;9.91;70.24;93013.63;5012925;28;20029;-80
2020/12/10 00:51:52;;;;;;;18.77;12.43;;;;;;;9.94;69.94;93033.34;5016282;28;20045;-80
2020/12/10 00:54:19;;;;;;;25.80;15.48;;;;;;;9.84;70.11;93021.19;5019987;28;20044;-81
2020/12/10 00:56:45;;;;;;;17.50;11.30;;;;;;;9.88;70.38;93031.91;5005716;28;20044;-80
2020/12/10 00:59:10;;;;;;;12.32;9.10;;;;;;;9.85;69.90;93021.97;5022917;28;20041;-81
2020/12/10 01:01:40;;;;;;;9.88;7.22;;;;;;;9.90;69.71;93022.63;5001892;28;20049;-80
2020/12/10 01:04:05;;;;;;;7.13;6.40;;;;;;;9.68;69.89;92990.19;5005470;28;20087;-81
2020/12/10 01:06:31;;;;;;;10.57;7.63;;;;;;;9.69;70.14;92999.69;5020303;28;20553;-80
2020/12/10 01:08:56;;;;;;;55.35;36.58;;;;;;;9.85;70.19;93014.84;5019247;28;20493;-80
2020/12/10 01:11:28;;;;;;;8.93;7.90;;;;;;;9.87;69.99;93012.66;5020527;28;20045;-80
2020/12/10 01:13:55;;;;;;;9.85;8.55;;;;;;;9.81;70.21;93013.88;5019176;28;21388;-80
2020/12/10 01:16:21;;;;;;;8.73;7.30;;;;;;;9.91;69.74;93024.19;5024160;28;20025;-80
2020/12/10 01:18:47;;;;;;;14.13;12.63;;;;;;;9.89;69.71;93012.38;5017849;28;20045;-80
2020/12/10 01:21:13;;;;;;;19.88;16.25;;;;;;;9.88;69.59;93008.94;5018950;28;20540;-80
2020/12/10 01:23:38;;;;;;;10.95;8.95;;;;;;;9.78;69.70;93006.56;5021397;28;20064;-80
2020/12/10 01:26:04;;;;;;;9.30;7.60;;;;;;;9.69;69.93;92991.75;5018653;28;20452;-80
2020/12/10 01:28:29;;;;;;;12.00;8.40;;;;;;;9.80;70.21;92982.53;5020554;28;20330;-81
2020/12/10 01:30:55;;;;;;;10.48;7.90;;;;;;;9.82;70.23;92986.41;5021725;28;20044;-81
2020/12/10 01:33:20;;;;;;;10.52;7.28;;;;;;;9.82;69.88;92993.56;5016419;28;20038;-81
2020/12/10 01:35:46;;;;;;;8.98;7.72;;;;;;;9.81;69.84;92990.16;5022258;28;20525;-81
2020/12/10 01:38:12;;;;;;;10.45;8.75;;;;;;;9.78;69.86;92977.53;5021793;28;20457;-81
2020/12/10 01:40:37;;;;;;;11.98;9.43;;;;;;;9.82;69.24;93001.47;5024116;28;20366;-81
2020/12/10 01:43:03;;;;;;;12.20;10.95;;;;;;;9.72;69.44;92999.88;5025635;28;20094;-81
2020/12/10 01:45:28;;;;;;;10.18;8.35;;;;;;;9.78;69.46;93001.28;5023704;28;20514;-81
2020/12/10 01:47:54;;;;;;;15.88;10.40;;;;;;;9.74;69.64;92987.16;5004392;28;20073;-80
2020/12/10 01:50:19;;;;;;;11.48;9.30;;;;;;;9.72;70.03;92975.34;5007395;28;20033;-81
2020/12/10 01:52:46;;;;;;;10.73;8.43;;;;;;;9.75;69.36;92986.06;5018291;28;20025;-81
2020/12/10 01:55:12;;;;;;;11.90;9.35;;;;;;;9.58;69.36;92970.13;5000888;28;20038;-81
2020/12/10 01:57:37;;;;;;;15.30;11.18;;;;;;;9.67;69.90;92978.91;5019817;28;20103;-80
2020/12/10 02:00:04;;;;;;;20.98;13.85;;;;;;;9.57;70.61;92997.59;5018501;28;20117;-80
2020/12/10 02:02:29;;;;;;;19.15;13.32;;;;;;;9.48;70.64;92980.97;5006839;28;20056;-80
2020/12/10 02:04:55;;;;;;;16.05;13.57;;;;;;;9.47;70.86;92980.16;5005714;28;20041;-81
2020/12/10 02:07:20;;;;;;;17.75;13.77;;;;;;;9.46;70.88;92973.34;5024750;28;20032;-80
2020/12/10 02:09:46;;;;;;;13.73;11.73;;;;;;;9.53;70.36;92988.72;5023895;28;20042;-81
2020/12/10 02:12:11;;;;;;;14.93;11.23;;;;;;;9.55;70.14;92989.22;5002411;28;20042;-80
2020/12/10 02:14:38;;;;;;;14.55;11.82;;;;;;;9.46;70.38;92977.81;5024078;28;20099;-81
2020/12/10 02:17:06;;;;;;;10.68;9.18;;;;;;;9.59;70.46;93003.34;5023100;28;20037;-81
2020/12/10 02:19:31;;;;;;;13.63;8.90;;;;;;;9.50;70.46;92991.97;5025288;28;20041;-80
2020/12/10 02:21:57;;;;;;;10.45;8.90;;;;;;;9.57;71.08;92987.06;5023496;28;20583;-80
2020/12/10 02:24:23;;;;;;;10.98;8.73;;;;;;;9.50;71.20;92978.78;5023467;28;20042;-81
2020/12/10 02:26:48;;;;;;;11.65;8.85;;;;;;;9.56;70.65;92951.22;4995063;28;20049;-81
2020/12/10 02:29:17;;;;;;;11.48;8.57;;;;;;;9.39;70.66;92940.53;5000183;28;20054;-81
2020/12/10 08:41:52;;;;;;;35.10;23.92;;;;;;;12.27;71.14;93023.84;5028285;27;20755;-80
2020/12/10 08:51:17;;;;;;;39.88;25.00;;;;;;;12.27;70.51;92963.69;4843387;28;20182;-81
2020/12/10 08:53:46;;;;;;;;;;;;;;;12.64;70.22;93006.41;4914580;28;20055;-81
2020/12/10 08:56:26;;;;;;;36.17;26.67;;;;;;;12.52;70.06;92981.34;4990210;28;19972;-82
2020/12/10 08:58:51;;;;;;;39.40;30.88;;;;;;;12.77;70.13;93006.16;5003787;28;20037;-81
2020/12/10 09:01:17;;;;;;;46.17;30.00;;;;;;;12.81;70.24;92999.09;5031061;28;20083;-82
2020/12/10 09:03:43;;;;;;;40.08;26.83;;;;;;;12.79;70.13;92990.72;5010205;28;20060;-80
2020/12/10 09:06:09;;;;;;;47.97;30.75;;;;;;;12.87;70.08;92995.19;5005374;28;20045;-80
2020/12/10 09:08:34;;;;;;;49.25;29.23;;;;;;;12.89;70.10;92984.25;5008646;28;20034;-80
2020/12/10 09:11:00;;;;;;;47.10;30.00;;;;;;;12.90;69.84;92980.53;5005965;28;20148;-80
2020/12/10 09:13:26;;;;;;;52.20;31.42;;;;;;;12.88;69.98;92985.34;5029893;28;20029;-80
2020/12/10 09:15:52;;;;;;;43.03;29.55;;;;;;;13.00;69.83;92988.06;5028078;28;20072;-81
2020/12/10 09:18:18;;;;;;;35.03;26.50;;;;;;;12.98;69.41;92961.91;5011757;28;20029;-81
2020/12/10 09:20:43;;;;;;;30.13;25.55;;;;;;;13.13;68.92;92984.44;5007194;28;20055;-81
2020/12/10 09:23:12;;;;;;;30.92;24.52;;;;;;;13.11;68.31;92946.84;5009142;28;20049;-81
2020/12/10 09:25:41;;;;;;;32.47;25.15;;;;;;;13.25;68.62;92962.47;5003845;28;20050;-81
2020/12/10 09:28:08;;;;;;;28.95;24.42;;;;;;;13.28;68.74;92967.94;5011137;28;20026;-82
2020/12/10 09:30:35;;;;;;;25.85;21.08;;;;;;;13.29;68.65;92968.72;5004120;28;20121;-80
2020/12/10 09:33:00;;;;;;;28.92;20.02;;;;;;;13.34;68.56;92969.28;5012669;28;22239;-81
2020/12/10 09:35:26;;;;;;;26.45;21.38;;;;;;;13.38;68.50;92972.06;5016461;28;20046;-80
2020/12/10 09:37:52;;;;;;;33.40;24.35;;;;;;;13.35;68.69;92976.13;5025081;28;20559;-81
2020/12/10 09:40:17;;;;;;;31.95;23.55;;;;;;;13.29;69.38;92974.03;5007529;28;20052;-81
2020/12/10 09:42:45;;;;;;;29.25;22.70;;;;;;;13.24;69.52;92968.91;5009253;28;20503;-81
2020/12/10 09:45:11;;;;;;;38.80;27.83;;;;;;;13.33;69.58;92988.97;5002593;28;20049;-80
2020/12/10 09:47:37;;;;;;;34.90;26.15;;;;;;;13.40;69.62;92986.56;5013616;28;20155;-80
2020/12/10 09:50:06;;;;;;;31.60;25.73;;;;;;;13.33;69.52;92959.00;5027809;28;20177;-81
2020/12/10 09:52:34;;;;;;;31.80;20.75;;;;;;;13.42;68.82;92984.38;5020423;28;20367;-82
2020/12/10 09:55:15;;;;;;;27.45;18.45;;;;;;;13.41;68.18;92988.13;5010038;28;20065;-81
2020/12/10 09:57:41;;;;;;;25.92;19.48;;;;;;;13.23;68.48;92964.69;5003140;28;20392;-81
2020/12/10 10:00:07;;;;;;;26.00;16.33;;;;;;;13.36;68.63;92984.88;5012088;28;20049;-81
2020/12/10 10:02:32;;;;;;;22.77;14.43;;;;;;;13.39;68.78;92974.38;5012235;28;20042;-81
2020/12/10 10:04:58;;;;;;;19.63;13.55;;;;;;;13.34;68.66;92966.63;5012897;28;20037;-81
2020/12/10 10:07:24;;;;;;;14.90;12.13;;;;;;;13.40;68.77;92969.84;5019207;28;20517;-81
2020/12/10 10:09:49;;;;;;;18.48;12.70;;;;;;;13.54;68.67;92980.19;4991847;28;20066;-81
2020/12/10 10:12:15;;;;;;;16.35;12.80;;;;;;;13.59;68.97;92978.13;4989700;28;20044;-80
2020/12/10 10:14:42;;;;;;;22.25;14.75;;;;;;;13.49;69.20;92965.25;4992712;28;20129;-81
2020/12/10 10:17:09;;;;;;;15.00;10.80;;;;;;;13.57;69.82;92968.94;4994268;28;20041;-82
2020/12/10 10:19:48;;;;;;;15.68;10.15;;;;;;;13.58;69.59;92960.66;5016010;28;20533;-88
2020/12/10 10:22:14;;;;;;;16.70;11.88;;;;;;;13.59;69.70;92950.78;4973817;28;20521;-86
2020/12/10 10:24:40;;;;;;;21.73;10.60;;;;;;;13.45;69.60;92920.00;5019317;28;20184;-88
2020/12/10 10:27:05;;;;;;;14.18;11.05;;;;;;;13.63;69.50;92925.16;5015266;28;20401;-82
2020/12/10 10:29:31;;;;;;;14.90;11.50;;;;;;;13.75;69.16;92939.22;5006934;28;20034;-83
2020/12/10 10:31:56;;;;;;;19.33;11.35;;;;;;;13.76;69.03;92924.06;4994042;28;20486;-82
2020/12/10 10:34:22;;;;;;;16.95;10.35;;;;;;;13.92;69.04;92932.19;4993941;28;20026;-82
2020/12/10 10:36:49;;;;;;;16.55;11.63;;;;;;;13.86;69.22;92924.44;4987353;28;20034;-82
2020/12/10 10:39:14;;;;;;;24.33;17.77;;;;;;;13.87;69.39;92922.56;4990825;28;20034;-87
